createdAt,value
2018-03-20T00:00:51.204Z,1003.5
2018-03-20T00:02:09.942Z,1003.5
2018-03-20T00:03:32.660Z,1003.5
2018-03-20T00:04:54.732Z,1003.4
2018-03-20T00:06:17.841Z,1003.5
2018-03-20T00:07:40.184Z,1003.5
2018-03-20T00:09:01.490Z,1003.5
2018-03-20T00:10:21.486Z,1003.4
2018-03-20T00:11:39.137Z,1003.4
2018-03-20T00:12:58.465Z,1003.5
2018-03-20T00:14:19.220Z,1003.4
2018-03-20T00:15:34.985Z,1003.5
2018-03-20T00:16:50.365Z,1003.4
2018-03-20T00:18:13.556Z,1003.3
2018-03-20T00:19:35.327Z,1003.3
2018-03-20T00:20:53.355Z,1003.3
2018-03-20T00:22:13.218Z,1003.3
2018-03-20T00:23:35.359Z,1003.4
2018-03-20T00:24:56.469Z,1003.3
2018-03-20T00:26:07.909Z,1003.3
2018-03-20T00:27:21.688Z,1003.2
2018-03-20T00:28:36.424Z,1003.3
2018-03-20T00:29:49.610Z,1003.3
2018-03-20T00:31:04.358Z,1003.2
2018-03-20T00:32:18.963Z,1003.3
2018-03-20T00:33:31.757Z,1003.2
2018-03-20T00:34:46.509Z,1003.2
2018-03-20T00:35:59.324Z,1003.1
2018-03-20T00:37:10.419Z,1003.1
2018-03-20T00:38:24.487Z,1003.1
2018-03-20T00:39:38.737Z,1003.1
2018-03-20T00:40:53.167Z,1003.1
2018-03-20T00:42:04.800Z,1003
2018-03-20T00:43:16.355Z,1003
2018-03-20T00:44:27.596Z,1002.9
2018-03-20T00:45:39.165Z,1002.9
2018-03-20T00:46:50.025Z,1002.9
2018-03-20T00:48:02.166Z,1002.9
2018-03-20T00:49:15.212Z,1002.8
2018-03-20T00:50:27.662Z,1002.8
2018-03-20T00:51:38.975Z,1002.8
2018-03-20T00:52:52.616Z,1002.8
2018-03-20T00:54:07.512Z,1002.8
2018-03-20T00:55:19.886Z,1002.7
2018-03-20T00:56:32.969Z,1002.7
2018-03-20T00:57:43.947Z,1002.8
2018-03-20T00:58:56.301Z,1002.7
2018-03-20T01:00:08.680Z,1002.8
2018-03-20T01:01:19.557Z,1002.8
2018-03-20T01:02:32.723Z,1002.8
2018-03-20T01:03:44.008Z,1002.8
2018-03-20T01:04:54.937Z,1002.8
2018-03-20T01:06:04.961Z,1002.8
2018-03-20T01:07:20.177Z,1002.8
2018-03-20T01:08:34.591Z,1002.8
2018-03-20T01:09:51.153Z,1002.7
2018-03-20T01:11:07.341Z,1002.7
2018-03-20T01:12:20.252Z,1002.7
2018-03-20T01:13:33.252Z,1002.7
2018-03-20T01:14:44.634Z,1002.8
2018-03-20T01:15:59.987Z,1002.8
2018-03-20T01:17:11.464Z,1002.7
2018-03-20T01:18:24.208Z,1002.7
2018-03-20T01:19:37.477Z,1002.7
2018-03-20T01:20:50.242Z,1002.7
2018-03-20T01:22:03.750Z,1002.7
2018-03-20T01:23:15.650Z,1002.7
2018-03-20T01:24:28.638Z,1002.8
2018-03-20T01:25:37.862Z,1002.8
2018-03-20T01:26:45.258Z,1002.8
2018-03-20T01:27:57.785Z,1002.7
2018-03-20T01:29:11.510Z,1002.7
2018-03-20T01:30:24.437Z,1002.7
2018-03-20T01:31:35.805Z,1002.7
2018-03-20T01:32:48.678Z,1002.7
2018-03-20T01:34:01.524Z,1002.7
2018-03-20T01:35:16.724Z,1002.7
2018-03-20T01:36:29.859Z,1002.7
2018-03-20T01:37:43.153Z,1002.7
2018-03-20T01:38:55.352Z,1002.6
2018-03-20T01:40:08.241Z,1002.6
2018-03-20T01:41:19.464Z,1002.6
2018-03-20T01:42:31.768Z,1002.7
2018-03-20T01:43:44.541Z,1002.6
2018-03-20T01:44:58.062Z,1002.6
2018-03-20T01:46:11.597Z,1002.6
2018-03-20T01:47:23.603Z,1002.6
2018-03-20T01:48:32.267Z,1002.6
2018-03-20T01:49:40.824Z,1002.6
2018-03-20T01:50:51.272Z,1002.5
2018-03-20T01:52:00.662Z,1002.5
2018-03-20T01:53:08.552Z,1002.5
2018-03-20T01:54:19.741Z,1002.5
2018-03-20T01:55:29.636Z,1002.5
2018-03-20T01:56:38.033Z,1002.4
2018-03-20T01:57:47.152Z,1002.5
2018-03-20T01:58:57.735Z,1002.5
2018-03-20T02:00:07.583Z,1002.4
2018-03-20T02:01:16.769Z,1002.5
2018-03-20T02:02:26.609Z,1002.4
2018-03-20T02:03:35.990Z,1002.4
2018-03-20T02:04:46.905Z,1002.3
2018-03-20T02:05:56.534Z,1002.3
2018-03-20T02:07:05.956Z,1002.3
2018-03-20T02:08:16.371Z,1002.3
2018-03-20T02:09:26.494Z,1002.3
2018-03-20T02:10:36.875Z,1002.3
2018-03-20T02:11:45.975Z,1002.3
2018-03-20T02:12:55.575Z,1002.2
2018-03-20T02:14:04.671Z,1002.2
2018-03-20T02:15:14.539Z,1002.2
2018-03-20T02:16:21.395Z,1002.2
2018-03-20T02:17:30.817Z,1002.2
2018-03-20T02:18:33.252Z,1002.2
2018-03-20T02:19:35.675Z,1002.2
2018-03-20T02:20:38.102Z,1002.2
2018-03-20T02:21:40.810Z,1002.2
2018-03-20T02:22:43.523Z,1002.2
2018-03-20T02:23:45.947Z,1002.2
2018-03-20T02:24:48.368Z,1002.2
2018-03-20T02:25:51.072Z,1002.2
2018-03-20T02:26:53.488Z,1002.2
2018-03-20T02:27:56.215Z,1002.2
2018-03-20T02:28:58.929Z,1002.2
2018-03-20T02:30:01.382Z,1002.2
2018-03-20T02:31:03.786Z,1002.1
2018-03-20T02:32:06.215Z,1002.2
2018-03-20T02:33:08.641Z,1002.1
2018-03-20T02:34:11.065Z,1002.1
2018-03-20T02:35:13.476Z,1002.2
2018-03-20T02:36:15.896Z,1002.2
2018-03-20T02:37:18.320Z,1002.2
2018-03-20T02:38:20.742Z,1002.2
2018-03-20T02:39:23.454Z,1002.2
2018-03-20T02:40:25.884Z,1002.2
2018-03-20T02:41:28.312Z,1002.2
2018-03-20T02:42:30.751Z,1002.2
2018-03-20T02:43:33.163Z,1002.2
2018-03-20T02:44:35.598Z,1002.2
2018-03-20T02:45:38.090Z,1002.2
2018-03-20T02:46:40.875Z,1002.2
2018-03-20T02:47:43.297Z,1002.1
2018-03-20T02:48:45.715Z,1002.2
2018-03-20T02:49:48.137Z,1002.1
2018-03-20T02:50:50.867Z,1002.1
2018-03-20T02:51:53.276Z,1002.2
2018-03-20T02:52:56.268Z,1002.2
2018-03-20T02:53:58.693Z,1002.1
2018-03-20T02:55:01.112Z,1002.1
2018-03-20T02:56:03.825Z,1002.2
2018-03-20T02:57:06.252Z,1002.1
2018-03-20T02:58:08.664Z,1002.1
2018-03-20T02:59:11.384Z,1002.1
2018-03-20T03:00:14.096Z,1002.1
2018-03-20T03:01:16.807Z,1002
2018-03-20T03:02:19.230Z,1002.1
2018-03-20T03:03:21.654Z,1002.1
2018-03-20T03:04:24.080Z,1002.1
2018-03-20T03:05:26.799Z,1002.1
2018-03-20T03:06:29.212Z,1002
2018-03-20T03:07:31.918Z,1002
2018-03-20T03:08:34.349Z,1002
2018-03-20T03:09:36.777Z,1002
2018-03-20T03:10:39.193Z,1002
2018-03-20T03:11:41.616Z,1002
2018-03-20T03:12:44.336Z,1002
2018-03-20T03:13:46.754Z,1002
2018-03-20T03:14:49.179Z,1002
2018-03-20T03:15:51.666Z,1002
2018-03-20T03:16:54.083Z,1002
2018-03-20T03:17:56.832Z,1002
2018-03-20T03:18:59.257Z,1002
2018-03-20T03:20:01.971Z,1001.9
2018-03-20T03:21:05.250Z,1002
2018-03-20T03:22:07.965Z,1002
2018-03-20T03:23:10.408Z,1002
2018-03-20T03:24:12.829Z,1001.9
2018-03-20T03:25:15.243Z,1001.9
2018-03-20T03:26:17.676Z,1001.9
2018-03-20T03:27:20.088Z,1001.9
2018-03-20T03:28:22.513Z,1001.9
2018-03-20T03:29:25.235Z,1001.9
2018-03-20T03:30:27.966Z,1001.8
2018-03-20T03:31:30.389Z,1001.9
2018-03-20T03:32:32.826Z,1001.9
2018-03-20T03:33:35.670Z,1001.8
2018-03-20T03:34:38.301Z,1001.9
2018-03-20T03:35:40.725Z,1001.8
2018-03-20T03:36:43.155Z,1001.8
2018-03-20T03:37:46.182Z,1001.8
2018-03-20T03:38:48.612Z,1001.8
2018-03-20T03:39:51.335Z,1001.8
2018-03-20T03:40:53.803Z,1001.8
2018-03-20T03:41:56.216Z,1001.8
2018-03-20T03:42:58.636Z,1001.8
2018-03-20T03:44:01.351Z,1001.8
2018-03-20T03:45:04.358Z,1001.8
2018-03-20T03:46:06.779Z,1001.8
2018-03-20T03:47:09.200Z,1001.8
2018-03-20T03:48:11.625Z,1001.8
2018-03-20T03:49:14.069Z,1001.8
2018-03-20T03:50:16.493Z,1001.8
2018-03-20T03:51:18.906Z,1001.8
2018-03-20T03:52:21.344Z,1001.8
2018-03-20T03:53:23.778Z,1001.8
2018-03-20T03:54:26.513Z,1001.7
2018-03-20T03:55:28.940Z,1001.8
2018-03-20T03:56:31.347Z,1001.8
2018-03-20T03:57:34.058Z,1001.8
2018-03-20T03:58:36.490Z,1001.8
2018-03-20T03:59:39.199Z,1001.8
2018-03-20T04:00:41.618Z,1001.8
2018-03-20T04:01:44.041Z,1001.8
2018-03-20T04:02:46.454Z,1001.8
2018-03-20T04:03:48.885Z,1001.9
2018-03-20T04:04:51.310Z,1001.8
2018-03-20T04:05:53.718Z,1001.9
2018-03-20T04:06:56.141Z,1001.9
2018-03-20T04:07:58.944Z,1001.9
2018-03-20T04:09:01.648Z,1001.9
2018-03-20T04:10:04.072Z,1001.8
2018-03-20T04:11:06.505Z,1001.9
2018-03-20T04:12:08.927Z,1001.9
2018-03-20T04:13:11.344Z,1001.8
2018-03-20T04:14:14.293Z,1001.8
2018-03-20T04:15:18.022Z,1001.9
2018-03-20T04:16:21.660Z,1001.9
2018-03-20T04:17:25.676Z,1001.9
2018-03-20T04:18:29.024Z,1001.9
2018-03-20T04:19:33.315Z,1001.9
2018-03-20T04:20:36.523Z,1002
2018-03-20T04:21:39.899Z,1001.9
2018-03-20T04:22:43.078Z,1001.9
2018-03-20T04:23:46.517Z,1001.9
2018-03-20T04:24:49.755Z,1001.9
2018-03-20T04:25:53.289Z,1001.9
2018-03-20T04:26:56.683Z,1001.9
2018-03-20T04:28:00.239Z,1001.9
2018-03-20T04:29:03.533Z,1001.9
2018-03-20T04:30:06.446Z,1001.9
2018-03-20T04:31:09.426Z,1001.9
2018-03-20T04:32:13.091Z,1001.9
2018-03-20T04:33:15.715Z,1001.9
2018-03-20T04:34:18.143Z,1001.9
2018-03-20T04:35:20.581Z,1001.9
2018-03-20T04:36:23.009Z,1001.9
2018-03-20T04:37:25.439Z,1001.9
2018-03-20T04:38:27.874Z,1001.9
2018-03-20T04:39:30.605Z,1001.9
2018-03-20T04:40:33.132Z,1001.9
2018-03-20T04:41:35.568Z,1001.9
2018-03-20T04:42:38.307Z,1001.9
2018-03-20T04:43:40.782Z,1001.9
2018-03-20T04:44:43.243Z,1001.9
2018-03-20T04:45:46.013Z,1002
2018-03-20T04:46:48.758Z,1002
2018-03-20T04:47:51.495Z,1002
2018-03-20T04:48:54.227Z,1002
2018-03-20T04:49:56.652Z,1002
2018-03-20T04:50:59.368Z,1002
2018-03-20T04:52:01.804Z,1002
2018-03-20T04:53:04.261Z,1001.9
2018-03-20T04:54:06.718Z,1002
2018-03-20T04:55:09.420Z,1002
2018-03-20T04:56:11.867Z,1002
2018-03-20T04:57:14.308Z,1002
2018-03-20T04:58:16.734Z,1002
2018-03-20T04:59:19.160Z,1002
2018-03-20T05:00:21.889Z,1002
2018-03-20T05:01:24.320Z,1002.1
2018-03-20T05:02:26.760Z,1002
2018-03-20T05:03:29.512Z,1002.1
2018-03-20T05:04:31.991Z,1002.1
2018-03-20T05:05:34.714Z,1002.2
2018-03-20T05:06:37.204Z,1002.2
2018-03-20T05:07:39.628Z,1002.1
2018-03-20T05:08:42.063Z,1002.3
2018-03-20T05:09:44.602Z,1002.2
2018-03-20T05:10:47.030Z,1002.2
2018-03-20T05:11:49.455Z,1002.2
2018-03-20T05:12:51.887Z,1002.2
2018-03-20T05:13:54.308Z,1002.3
2018-03-20T05:14:57.035Z,1002.3
2018-03-20T05:15:59.453Z,1002.3
2018-03-20T05:17:02.160Z,1002.3
2018-03-20T05:18:04.585Z,1002.3
2018-03-20T05:19:07.002Z,1002.3
2018-03-20T05:20:09.419Z,1002.3
2018-03-20T05:21:11.960Z,1002.4
2018-03-20T05:22:14.666Z,1002.3
2018-03-20T05:23:17.099Z,1002.3
2018-03-20T05:24:19.525Z,1002.4
2018-03-20T05:25:21.950Z,1002.4
2018-03-20T05:26:24.363Z,1002.4
2018-03-20T05:27:26.807Z,1002.4
2018-03-20T05:28:29.529Z,1002.4
2018-03-20T05:29:31.966Z,1002.4
2018-03-20T05:30:34.392Z,1002.4
2018-03-20T05:31:36.818Z,1002.4
2018-03-20T05:32:39.241Z,1002.4
2018-03-20T05:33:41.667Z,1002.4
2018-03-20T05:34:44.368Z,1002.5
2018-03-20T05:35:46.799Z,1002.5
2018-03-20T05:36:49.232Z,1002.5
2018-03-20T05:37:51.648Z,1002.4
2018-03-20T05:38:54.067Z,1002.5
2018-03-20T05:39:56.484Z,1002.5
2018-03-20T05:40:58.918Z,1002.5
2018-03-20T05:42:01.341Z,1002.5
2018-03-20T05:43:03.768Z,1002.5
2018-03-20T05:44:06.482Z,1002.5
2018-03-20T05:45:08.914Z,1002.5
2018-03-20T05:46:11.329Z,1002.5
2018-03-20T05:47:13.758Z,1002.5
2018-03-20T05:48:16.171Z,1002.6
2018-03-20T05:49:18.606Z,1002.6
2018-03-20T05:50:21.037Z,1002.7
2018-03-20T05:51:23.465Z,1002.7
2018-03-20T05:52:25.887Z,1002.7
2018-03-20T05:53:28.311Z,1002.7
2018-03-20T05:54:30.728Z,1002.7
2018-03-20T05:55:33.156Z,1002.8
2018-03-20T05:56:35.578Z,1002.8
2018-03-20T05:57:38.004Z,1002.8
2018-03-20T05:58:41.026Z,1002.8
2018-03-20T05:59:43.791Z,1002.9
2018-03-20T06:00:46.215Z,1002.9
2018-03-20T06:01:48.648Z,1002.9
2018-03-20T06:02:51.051Z,1002.9
2018-03-20T06:03:53.477Z,1003
2018-03-20T06:04:55.903Z,1002.9
2018-03-20T06:05:58.328Z,1002.9
2018-03-20T06:07:00.762Z,1002.9
2018-03-20T06:08:03.468Z,1003
2018-03-20T06:09:05.892Z,1003
2018-03-20T06:10:08.313Z,1003.1
2018-03-20T06:11:10.730Z,1003.1
2018-03-20T06:12:13.169Z,1003.1
2018-03-20T06:13:15.865Z,1003.1
2018-03-20T06:14:18.578Z,1003.1
2018-03-20T06:15:21.294Z,1003.1
2018-03-20T06:16:23.712Z,1003.2
2018-03-20T06:17:26.151Z,1003.2
2018-03-20T06:18:28.571Z,1003.3
2018-03-20T06:19:31.567Z,1003.3
2018-03-20T06:20:33.995Z,1003.3
2018-03-20T06:21:36.414Z,1003.3
2018-03-20T06:22:39.133Z,1003.3
2018-03-20T06:23:41.564Z,1003.3
2018-03-20T06:24:43.986Z,1003.4
2018-03-20T06:25:46.424Z,1003.4
2018-03-20T06:26:49.428Z,1003.5
2018-03-20T06:27:51.846Z,1003.5
2018-03-20T06:28:54.276Z,1003.5
2018-03-20T06:29:56.693Z,1003.6
2018-03-20T06:30:59.416Z,1003.6
2018-03-20T06:32:01.840Z,1003.7
2018-03-20T06:33:04.262Z,1003.7
2018-03-20T06:34:06.988Z,1003.7
2018-03-20T06:35:09.420Z,1003.7
2018-03-20T06:36:12.135Z,1003.8
2018-03-20T06:37:14.559Z,1003.8
2018-03-20T06:38:17.274Z,1003.9
2018-03-20T06:39:19.699Z,1003.8
2018-03-20T06:40:22.131Z,1003.9
2018-03-20T06:41:24.839Z,1003.9
2018-03-20T06:42:27.532Z,1004
2018-03-20T06:43:29.968Z,1004
2018-03-20T06:44:32.681Z,1004.1
2018-03-20T06:45:35.135Z,1004.1
2018-03-20T06:46:37.522Z,1004.1
2018-03-20T06:47:39.942Z,1004.1
2018-03-20T06:48:42.364Z,1004.1
2018-03-20T06:49:44.781Z,1004.2
2018-03-20T06:50:47.212Z,1004.3
2018-03-20T06:51:49.919Z,1004.2
2018-03-20T06:52:52.349Z,1004.3
2018-03-20T06:53:55.065Z,1004.3
2018-03-20T06:54:57.472Z,1004.3
2018-03-20T06:55:59.902Z,1004.4
2018-03-20T06:57:02.629Z,1004.3
2018-03-20T06:58:05.671Z,1004.5
2018-03-20T06:59:08.087Z,1004.5
2018-03-20T07:00:10.506Z,1004.6
2018-03-20T07:01:12.931Z,1004.6
2018-03-20T07:02:15.365Z,1004.6
2018-03-20T07:03:18.071Z,1004.7
2018-03-20T07:04:20.491Z,1004.5
2018-03-20T07:05:22.920Z,1004.7
2018-03-20T07:06:25.637Z,1004.8
2018-03-20T07:07:28.047Z,1004.7
2018-03-20T07:08:30.472Z,1004.8
2018-03-20T07:09:32.886Z,1004.9
2018-03-20T07:10:35.309Z,1004.9
2018-03-20T07:11:37.731Z,1004.8
2018-03-20T07:12:40.154Z,1004.9
2018-03-20T07:13:42.581Z,1005
2018-03-20T07:14:45.018Z,1004.9
2018-03-20T07:15:47.439Z,1005
2018-03-20T07:16:50.278Z,1005
2018-03-20T07:17:52.689Z,1005.1
2018-03-20T07:18:55.391Z,1005.1
2018-03-20T07:19:57.764Z,1005.1
2018-03-20T07:21:00.144Z,1005.2
2018-03-20T07:22:02.815Z,1005.2
2018-03-20T07:23:05.489Z,1005.1
2018-03-20T07:24:07.860Z,1005.3
2018-03-20T07:25:10.240Z,1005.2
2018-03-20T07:26:12.606Z,1005.2
2018-03-20T07:27:14.968Z,1005.2
2018-03-20T07:28:17.403Z,1005.3
2018-03-20T07:29:20.129Z,1005.3
2018-03-20T07:30:22.583Z,1005.3
2018-03-20T07:31:29.126Z,1005.3
2018-03-20T07:32:31.583Z,1005.5
2018-03-20T07:33:34.949Z,1005.4
2018-03-20T07:34:42.785Z,1005.5
2018-03-20T07:35:45.582Z,1005.5
2018-03-20T07:36:48.171Z,1005.6
2018-03-20T07:37:50.690Z,1005.6
2018-03-20T07:38:54.504Z,1005.6
2018-03-20T07:39:57.501Z,1005.6
2018-03-20T07:40:59.854Z,1005.6
2018-03-20T07:42:02.230Z,1005.6
2018-03-20T07:43:04.607Z,1005.6
2018-03-20T07:44:06.975Z,1005.7
2018-03-20T07:45:09.352Z,1005.6
2018-03-20T07:46:11.716Z,1005.8
2018-03-20T07:47:14.087Z,1005.7
2018-03-20T07:48:16.456Z,1005.8
2018-03-20T07:49:18.821Z,1005.8
2018-03-20T07:50:21.188Z,1005.8
2018-03-20T07:51:23.561Z,1005.9
2018-03-20T07:52:25.922Z,1005.9
2018-03-20T07:53:28.290Z,1006
2018-03-20T07:54:30.665Z,1006
2018-03-20T07:55:33.033Z,1006.1
2018-03-20T07:56:35.685Z,1006.2
2018-03-20T07:57:38.059Z,1006.1
2018-03-20T07:58:40.426Z,1006.2
2018-03-20T07:59:42.809Z,1006.2
2018-03-20T08:00:45.185Z,1006.3
2018-03-20T08:01:47.544Z,1006.3
2018-03-20T08:02:49.919Z,1006.3
2018-03-20T08:03:52.290Z,1006.2
2018-03-20T08:04:54.658Z,1006.3
2018-03-20T08:05:57.316Z,1006.4
2018-03-20T08:06:59.697Z,1006.4
2018-03-20T08:08:02.077Z,1006.3
2018-03-20T08:09:04.430Z,1006.4
2018-03-20T08:10:06.807Z,1006.5
2018-03-20T08:11:09.168Z,1006.4
2018-03-20T08:12:11.540Z,1006.4
2018-03-20T08:13:14.297Z,1006.4
2018-03-20T08:14:16.610Z,1006.5
2018-03-20T08:15:18.979Z,1006.5
2018-03-20T08:16:21.356Z,1006.5
2018-03-20T08:17:23.725Z,1006.6
2018-03-20T08:18:26.093Z,1006.6
2018-03-20T08:19:28.788Z,1006.6
2018-03-20T08:20:31.116Z,1006.7
2018-03-20T08:21:33.482Z,1006.7
2018-03-20T08:22:35.854Z,1006.7
2018-03-20T08:23:38.217Z,1006.8
2018-03-20T08:24:40.588Z,1006.7
2018-03-20T08:25:43.254Z,1006.8
2018-03-20T08:26:45.615Z,1006.8
2018-03-20T08:27:47.988Z,1006.8
2018-03-20T08:28:50.353Z,1006.9
2018-03-20T08:29:52.736Z,1006.9
2018-03-20T08:30:55.101Z,1007
2018-03-20T08:31:57.472Z,1007
2018-03-20T08:32:59.838Z,1006.9
2018-03-20T08:34:02.525Z,1007
2018-03-20T08:35:04.869Z,1007
2018-03-20T08:36:07.237Z,1007
2018-03-20T08:37:09.895Z,1007
2018-03-20T08:38:12.264Z,1007.1
2018-03-20T08:39:14.646Z,1007.1
2018-03-20T08:40:17.296Z,1007.2
2018-03-20T08:41:19.945Z,1007.2
2018-03-20T08:42:22.614Z,1007.2
2018-03-20T08:43:24.980Z,1007.3
2018-03-20T08:44:27.357Z,1007.2
2018-03-20T08:45:29.731Z,1007.3
2018-03-20T08:46:32.094Z,1007.3
2018-03-20T08:47:34.475Z,1007.3
2018-03-20T08:48:36.842Z,1007.4
2018-03-20T08:49:39.206Z,1007.4
2018-03-20T08:50:41.577Z,1007.5
2018-03-20T08:51:43.967Z,1007.5
2018-03-20T08:52:46.338Z,1007.5
2018-03-20T08:53:48.989Z,1007.5
2018-03-20T08:54:51.361Z,1007.6
2018-03-20T08:55:53.740Z,1007.6
2018-03-20T08:56:56.119Z,1007.5
2018-03-20T08:57:58.488Z,1007.6
2018-03-20T08:59:00.856Z,1007.7
2018-03-20T09:00:03.217Z,1007.7
2018-03-20T09:01:05.596Z,1007.7
2018-03-20T09:02:08.256Z,1007.7
2018-03-20T09:03:10.901Z,1007.7
2018-03-20T09:04:13.286Z,1007.8
2018-03-20T09:05:15.673Z,1007.8
2018-03-20T09:06:18.319Z,1007.8
2018-03-20T09:07:20.700Z,1007.8
2018-03-20T09:08:23.071Z,1007.8
2018-03-20T09:09:25.443Z,1007.8
2018-03-20T09:10:28.113Z,1007.9
2018-03-20T09:11:30.472Z,1007.9
2018-03-20T09:12:32.885Z,1007.9
2018-03-20T09:13:35.230Z,1007.9
2018-03-20T09:14:37.617Z,1008
2018-03-20T09:15:40.281Z,1008
2018-03-20T09:16:42.658Z,1008
2018-03-20T09:17:45.313Z,1008
2018-03-20T09:18:47.687Z,1008.1
2018-03-20T09:19:50.057Z,1008.1
2018-03-20T09:20:52.428Z,1008.1
2018-03-20T09:21:54.799Z,1008.1
2018-03-20T09:22:57.179Z,1008.1
2018-03-20T09:23:59.565Z,1008.1
2018-03-20T09:25:01.918Z,1008.2
2018-03-20T09:26:04.293Z,1008.2
2018-03-20T09:27:06.662Z,1008.2
2018-03-20T09:28:09.041Z,1008.2
2018-03-20T09:29:11.409Z,1008.2
2018-03-20T09:30:13.784Z,1008.2
2018-03-20T09:31:16.438Z,1008.2
2018-03-20T09:32:18.824Z,1008.3
2018-03-20T09:33:21.213Z,1008.3
2018-03-20T09:34:23.587Z,1008.4
2018-03-20T09:35:26.010Z,1008.4
2018-03-20T09:36:28.637Z,1008.3
2018-03-20T09:37:31.001Z,1008.5
2018-03-20T09:38:33.379Z,1008.4
2018-03-20T09:39:35.770Z,1008.5
2018-03-20T09:40:38.128Z,1008.5
2018-03-20T09:41:40.505Z,1008.5
2018-03-20T09:42:42.883Z,1008.5
2018-03-20T09:43:45.266Z,1008.5
2018-03-20T09:44:47.972Z,1008.5
2018-03-20T09:45:50.661Z,1008.6
2018-03-20T09:46:53.303Z,1008.5
2018-03-20T09:47:55.697Z,1008.6
2018-03-20T09:48:58.362Z,1008.5
2018-03-20T09:50:01.015Z,1008.6
2018-03-20T09:51:03.394Z,1008.6
2018-03-20T09:52:05.769Z,1008.6
2018-03-20T09:53:08.433Z,1008.6
2018-03-20T09:54:10.814Z,1008.6
2018-03-20T09:55:13.189Z,1008.6
2018-03-20T09:56:15.573Z,1008.7
2018-03-20T09:57:17.940Z,1008.7
2018-03-20T09:58:20.319Z,1008.7
2018-03-20T09:59:22.698Z,1008.8
2018-03-20T10:00:25.363Z,1008.8
2018-03-20T10:01:27.732Z,1008.8
2018-03-20T10:02:30.122Z,1008.9
2018-03-20T10:03:32.501Z,1008.9
2018-03-20T10:04:34.890Z,1009
2018-03-20T10:05:37.269Z,1008.9
2018-03-20T10:06:39.925Z,1009
2018-03-20T10:07:42.588Z,1009
2018-03-20T10:08:44.964Z,1008.9
2018-03-20T10:09:47.902Z,1009
2018-03-20T10:10:50.286Z,1009
2018-03-20T10:11:52.648Z,1009
2018-03-20T10:12:55.042Z,1009
2018-03-20T10:13:57.416Z,1009
2018-03-20T10:14:59.792Z,1009
2018-03-20T10:16:02.458Z,1009
2018-03-20T10:17:05.116Z,1009
2018-03-20T10:18:08.360Z,1009
2018-03-20T10:19:11.020Z,1009.1
2018-03-20T10:20:13.457Z,1009.1
2018-03-20T10:21:16.173Z,1009.2
2018-03-20T10:22:18.567Z,1009.3
2018-03-20T10:23:20.942Z,1009.2
2018-03-20T10:24:23.310Z,1009.2
2018-03-20T10:25:25.692Z,1009.2
2018-03-20T10:26:28.063Z,1009.2
2018-03-20T10:27:30.451Z,1009.2
2018-03-20T10:28:33.134Z,1009.2
2018-03-20T10:29:35.547Z,1009.2
2018-03-20T10:30:37.884Z,1009.2
2018-03-20T10:31:40.272Z,1009.3
2018-03-20T10:32:42.639Z,1009.3
2018-03-20T10:33:45.008Z,1009.3
2018-03-20T10:34:47.383Z,1009.3
2018-03-20T10:35:49.753Z,1009.3
2018-03-20T10:36:52.128Z,1009.3
2018-03-20T10:37:54.507Z,1009.3
2018-03-20T10:38:57.181Z,1009.3
2018-03-20T10:39:59.561Z,1009.4
2018-03-20T10:41:02.228Z,1009.4
2018-03-20T10:42:04.604Z,1009.4
2018-03-20T10:43:06.988Z,1009.4
2018-03-20T10:44:09.368Z,1009.4
2018-03-20T10:45:11.750Z,1009.4
2018-03-20T10:46:14.131Z,1009.5
2018-03-20T10:47:16.523Z,1009.5
2018-03-20T10:48:18.898Z,1009.5
2018-03-20T10:49:21.278Z,1009.5
2018-03-20T10:50:23.654Z,1009.4
2018-03-20T10:51:26.030Z,1009.5
2018-03-20T10:52:28.714Z,1009.5
2018-03-20T10:53:31.410Z,1009.5
2018-03-20T10:54:33.764Z,1009.5
2018-03-20T10:55:36.149Z,1009.6
2018-03-20T10:56:38.530Z,1009.6
2018-03-20T10:57:40.909Z,1009.6
2018-03-20T10:58:43.576Z,1009.6
2018-03-20T10:59:45.966Z,1009.7
2018-03-20T11:00:48.337Z,1009.7
2018-03-20T11:01:50.727Z,1009.7
2018-03-20T11:02:53.100Z,1009.7
2018-03-20T11:03:55.485Z,1009.8
2018-03-20T11:04:57.855Z,1009.7
2018-03-20T11:06:00.241Z,1009.7
2018-03-20T11:07:02.923Z,1009.7
2018-03-20T11:08:05.295Z,1009.8
2018-03-20T11:09:07.685Z,1009.8
2018-03-20T11:10:10.069Z,1009.8
2018-03-20T11:11:12.446Z,1009.8
2018-03-20T11:12:14.846Z,1009.9
2018-03-20T11:13:17.241Z,1009.9
2018-03-20T11:14:19.598Z,1009.9
2018-03-20T11:15:22.264Z,1009.9
2018-03-20T11:16:24.649Z,1009.9
2018-03-20T11:17:27.028Z,1009.9
2018-03-20T11:18:29.423Z,1010
2018-03-20T11:19:31.797Z,1009.9
2018-03-20T11:20:34.179Z,1010
2018-03-20T11:21:36.559Z,1010
2018-03-20T11:22:38.940Z,1010
2018-03-20T11:23:41.331Z,1010
2018-03-20T11:24:43.737Z,1010.1
2018-03-20T11:25:46.098Z,1010.1
2018-03-20T11:26:48.772Z,1010.1
2018-03-20T11:27:51.161Z,1010.1
2018-03-20T11:28:53.541Z,1010.1
2018-03-20T11:29:55.968Z,1010.2
2018-03-20T11:30:58.308Z,1010.2
2018-03-20T11:32:00.692Z,1010.3
2018-03-20T11:33:03.451Z,1010.3
2018-03-20T11:34:05.838Z,1010.2
2018-03-20T11:35:08.542Z,1010.3
2018-03-20T11:36:10.892Z,1010.3
2018-03-20T11:37:13.282Z,1010.3
2018-03-20T11:38:15.667Z,1010.3
2018-03-20T11:39:18.336Z,1010.3
2018-03-20T11:40:20.723Z,1010.4
2018-03-20T11:41:23.103Z,1010.4
2018-03-20T11:42:25.492Z,1010.4
2018-03-20T11:43:27.874Z,1010.4
2018-03-20T11:44:30.265Z,1010.4
2018-03-20T11:45:32.643Z,1010.4
2018-03-20T11:46:35.028Z,1010.5
2018-03-20T11:47:37.419Z,1010.5
2018-03-20T11:48:39.804Z,1010.5
2018-03-20T11:49:42.467Z,1010.6
2018-03-20T11:50:44.846Z,1010.5
2018-03-20T11:51:47.235Z,1010.6
2018-03-20T11:52:49.932Z,1010.6
2018-03-20T11:53:52.319Z,1010.6
2018-03-20T11:54:54.758Z,1010.6
2018-03-20T11:55:57.146Z,1010.7
2018-03-20T11:56:59.531Z,1010.7
2018-03-20T11:58:01.925Z,1010.6
2018-03-20T11:59:04.304Z,1010.6
2018-03-20T12:00:06.691Z,1010.7
2018-03-20T12:01:09.633Z,1010.7
2018-03-20T12:02:12.073Z,1010.7
2018-03-20T12:03:14.418Z,1010.7
2018-03-20T12:04:16.798Z,1010.8
2018-03-20T12:05:19.184Z,1010.7
2018-03-20T12:06:21.575Z,1010.7
2018-03-20T12:07:23.955Z,1010.8
2018-03-20T12:08:26.342Z,1010.7
2018-03-20T12:09:28.720Z,1010.7
2018-03-20T12:10:31.101Z,1010.7
2018-03-20T12:11:33.501Z,1010.8
2018-03-20T12:12:36.163Z,1010.8
2018-03-20T12:13:38.552Z,1010.8
2018-03-20T12:14:40.937Z,1010.8
2018-03-20T12:15:43.319Z,1010.9
2018-03-20T12:16:45.726Z,1010.9
2018-03-20T12:17:48.115Z,1010.9
2018-03-20T12:18:50.780Z,1010.9
2018-03-20T12:19:53.199Z,1010.9
2018-03-20T12:20:55.563Z,1010.9
2018-03-20T12:21:57.942Z,1011
2018-03-20T12:23:00.345Z,1010.9
2018-03-20T12:24:02.720Z,1011
2018-03-20T12:25:05.103Z,1011
2018-03-20T12:26:07.501Z,1011
2018-03-20T12:27:10.160Z,1011
2018-03-20T12:28:12.551Z,1011
2018-03-20T12:29:14.934Z,1011
2018-03-20T12:30:17.593Z,1011
2018-03-20T12:31:19.980Z,1011
2018-03-20T12:32:22.371Z,1011.1
2018-03-20T12:33:24.759Z,1011.1
2018-03-20T12:34:27.423Z,1011
2018-03-20T12:35:29.830Z,1011.2
2018-03-20T12:36:32.216Z,1011.2
2018-03-20T12:37:34.589Z,1011.1
2018-03-20T12:38:36.979Z,1011.1
2018-03-20T12:39:39.363Z,1011.2
2018-03-20T12:40:42.035Z,1011.2
2018-03-20T12:41:44.419Z,1011.2
2018-03-20T12:42:46.797Z,1011.2
2018-03-20T12:43:49.478Z,1011.2
2018-03-20T12:44:51.874Z,1011.2
2018-03-20T12:45:54.257Z,1011.2
2018-03-20T12:46:56.648Z,1011.2
2018-03-20T12:47:59.035Z,1011.2
2018-03-20T12:49:01.420Z,1011.2
2018-03-20T12:50:04.379Z,1011.3
2018-03-20T12:51:06.770Z,1011.2
2018-03-20T12:52:09.150Z,1011.3
2018-03-20T12:53:11.534Z,1011.3
2018-03-20T12:54:13.918Z,1011.3
2018-03-20T12:55:16.305Z,1011.3
2018-03-20T12:56:18.972Z,1011.3
2018-03-20T12:57:21.351Z,1011.4
2018-03-20T12:58:23.732Z,1011.4
2018-03-20T12:59:26.133Z,1011.3
2018-03-20T13:00:28.521Z,1011.4
2018-03-20T13:01:30.950Z,1011.4
2018-03-20T13:02:33.284Z,1011.4
2018-03-20T13:03:35.961Z,1011.4
2018-03-20T13:04:39.165Z,1011.4
2018-03-20T13:05:42.189Z,1011.5
2018-03-20T13:06:44.856Z,1011.5
2018-03-20T13:07:48.825Z,1011.4
2018-03-20T13:08:57.724Z,1011.5
2018-03-20T13:10:01.217Z,1011.4
2018-03-20T13:11:04.819Z,1011.4
2018-03-20T13:12:11.416Z,1011.5
2018-03-20T13:13:14.324Z,1011.5
2018-03-20T13:15:53.878Z,1011.5
2018-03-20T13:17:01.188Z,1011.5
2018-03-20T13:18:07.422Z,1011.5
2018-03-20T13:19:10.743Z,1011.6
2018-03-20T13:20:17.449Z,1011.6
2018-03-20T13:21:23.882Z,1011.6
2018-03-20T13:22:31.572Z,1011.6
2018-03-20T13:23:37.545Z,1011.6
2018-03-20T13:24:42.999Z,1011.6
2018-03-20T13:25:47.581Z,1011.5
2018-03-20T13:26:51.340Z,1011.5
2018-03-20T13:27:55.073Z,1011.6